createdAt,value
2022-09-25T00:01:18.022Z,2.08
2022-09-25T00:03:44.938Z,2.33
2022-09-25T00:06:13.073Z,2.05
2022-09-25T00:08:40.463Z,2.55
2022-09-25T00:11:08.409Z,2.50
2022-09-25T00:13:35.497Z,1.90
2022-09-25T00:16:03.335Z,1.77
2022-09-25T00:18:48.435Z,2.50
2022-09-25T00:21:19.617Z,2.30
2022-09-25T00:23:47.627Z,2.40
2022-09-25T00:26:15.138Z,2.33
2022-09-25T00:28:46.222Z,2.42
2022-09-25T00:31:22.171Z,2.45
2022-09-25T00:33:49.030Z,2.15
2022-09-25T00:36:15.972Z,2.00
2022-09-25T00:38:43.732Z,1.98
2022-09-25T00:41:12.817Z,2.00
2022-09-25T00:43:44.864Z,2.00
2022-09-25T00:46:30.521Z,2.28
2022-09-25T00:49:03.923Z,2.40
2022-09-25T00:51:35.071Z,2.30
2022-09-25T00:54:03.493Z,2.70
2022-09-25T00:56:32.495Z,2.08
2022-09-25T00:59:02.760Z,2.05
2022-09-25T01:01:32.021Z,1.90
2022-09-25T01:04:01.009Z,2.40
2022-09-25T01:06:28.243Z,2.15
2022-09-25T01:08:55.624Z,2.42
2022-09-25T01:11:22.466Z,2.15
2022-09-25T01:13:49.528Z,2.38
2022-09-25T01:16:19.303Z,3.08
2022-09-25T01:18:49.282Z,2.67
2022-09-25T01:21:38.654Z,2.33
2022-09-25T01:24:17.530Z,2.67
2022-09-25T01:27:04.269Z,2.40
2022-09-25T01:29:33.312Z,2.15
2022-09-25T01:32:04.609Z,2.53
2022-09-25T01:34:37.051Z,2.53
2022-09-25T01:37:22.469Z,2.30
2022-09-25T01:40:01.655Z,2.45
2022-09-25T01:42:33.207Z,2.72
2022-09-25T01:45:07.015Z,2.83
2022-09-25T01:47:38.092Z,2.42
2022-09-25T01:50:14.420Z,2.60
2022-09-25T01:52:46.896Z,2.90
2022-09-25T01:55:19.708Z,3.40
2022-09-25T01:57:52.647Z,2.50
2022-09-25T02:00:22.177Z,3.30
2022-09-25T02:03:02.308Z,2.90
2022-09-25T02:05:35.359Z,2.85
2022-09-25T02:08:06.337Z,3.30
2022-09-25T02:10:37.565Z,2.88
2022-09-25T02:13:09.600Z,3.05
2022-09-25T02:15:40.998Z,3.42
2022-09-25T02:18:31.394Z,3.55
2022-09-25T02:21:17.306Z,3.90
2022-09-25T02:23:47.321Z,3.88
2022-09-25T02:26:18.527Z,4.07
2022-09-25T02:28:45.335Z,3.97
2022-09-25T02:31:13.144Z,3.65
2022-09-25T02:33:44.430Z,3.80
2022-09-25T02:36:19.157Z,3.00
2022-09-25T02:38:51.183Z,3.92
2022-09-25T02:41:33.201Z,3.47
2022-09-25T02:44:13.204Z,3.63
2022-09-25T02:46:46.366Z,3.60
2022-09-25T02:49:27.650Z,3.22
2022-09-25T02:52:20.131Z,3.65
2022-09-25T02:54:51.835Z,3.17
2022-09-25T02:57:30.655Z,3.85
2022-09-25T03:00:02.768Z,3.30
2022-09-25T03:02:30.083Z,3.92
2022-09-25T03:05:00.547Z,3.65
2022-09-25T03:07:29.251Z,3.10
2022-09-25T03:09:58.285Z,3.50
2022-09-25T03:12:26.559Z,3.50
2022-09-25T03:14:53.500Z,2.85
2022-09-25T03:17:23.659Z,3.22
2022-09-25T03:19:53.644Z,3.50
2022-09-25T03:22:20.517Z,3.72
2022-09-25T03:24:50.016Z,3.60
2022-09-25T03:27:17.898Z,3.90
2022-09-25T03:29:53.003Z,3.65
2022-09-25T03:32:25.623Z,3.83
2022-09-25T03:34:52.563Z,3.65
2022-09-25T03:37:19.754Z,3.40
2022-09-25T03:39:50.961Z,3.40
2022-09-25T03:42:20.528Z,4.78
2022-09-25T03:44:50.379Z,3.63
2022-09-25T03:47:18.476Z,3.75
2022-09-25T03:49:47.415Z,3.80
2022-09-25T03:52:16.684Z,3.75
2022-09-25T03:54:44.190Z,3.00
2022-09-25T03:57:15.193Z,4.15
2022-09-25T03:59:45.251Z,3.35
2022-09-25T04:02:12.951Z,3.53
2022-09-25T04:04:42.780Z,3.80
2022-09-25T04:07:17.191Z,3.72
2022-09-25T04:09:46.653Z,4.07
2022-09-25T04:12:17.321Z,3.60
2022-09-25T04:14:47.467Z,3.78
2022-09-25T04:17:14.736Z,3.47
2022-09-25T04:19:43.822Z,3.70
2022-09-25T04:22:10.642Z,3.60
2022-09-25T04:24:48.728Z,4.13
2022-09-25T04:27:19.695Z,3.47
2022-09-25T04:29:47.016Z,3.22
2022-09-25T04:32:33.114Z,3.45
2022-09-25T04:35:00.241Z,3.45
2022-09-25T04:37:27.554Z,4.35
2022-09-25T04:39:57.427Z,3.80
2022-09-25T04:42:27.318Z,4.47
2022-09-25T04:44:59.595Z,4.25
2022-09-25T04:47:29.512Z,3.17
2022-09-25T04:49:56.498Z,3.50
2022-09-25T04:52:23.276Z,3.47
2022-09-25T04:54:50.043Z,3.38
2022-09-25T04:57:45.634Z,3.50
2022-09-25T05:00:08.091Z,3.28
2022-09-25T05:02:36.819Z,3.17
2022-09-25T05:05:03.982Z,3.60
2022-09-25T05:07:30.827Z,3.67
2022-09-25T05:10:03.035Z,3.50
2022-09-25T05:12:29.923Z,3.25
2022-09-25T05:14:56.702Z,3.40
2022-09-25T05:17:23.554Z,2.92
2022-09-25T05:19:50.424Z,3.55
2022-09-25T05:22:19.836Z,3.40
2022-09-25T05:24:49.287Z,3.60
2022-09-25T05:27:16.827Z,3.03
2022-09-25T05:29:47.083Z,3.53
2022-09-25T05:32:14.192Z,3.67
2022-09-25T05:34:44.293Z,3.47
2022-09-25T05:37:11.120Z,3.35
2022-09-25T05:39:38.031Z,3.20
2022-09-25T05:42:05.263Z,3.22
2022-09-25T05:44:33.273Z,3.03
2022-09-25T05:47:00.190Z,2.97
2022-09-25T05:49:29.687Z,3.72
2022-09-25T05:51:56.505Z,3.85
2022-09-25T05:54:23.592Z,4.03
2022-09-25T05:56:50.278Z,3.78
2022-09-25T05:59:17.705Z,3.80
2022-09-25T06:01:44.653Z,3.65
2022-09-25T06:04:13.641Z,4.50
2022-09-25T06:06:45.963Z,3.88
2022-09-25T06:09:12.742Z,3.95
2022-09-25T06:11:41.010Z,3.50
2022-09-25T06:14:11.093Z,3.47
2022-09-25T06:16:41.826Z,3.25
2022-09-25T06:19:11.230Z,4.00
2022-09-25T06:21:38.052Z,3.63
2022-09-25T06:24:04.864Z,4.10
2022-09-25T06:26:33.532Z,4.22
2022-09-25T06:29:03.263Z,3.63
2022-09-25T06:31:30.877Z,3.08
2022-09-25T06:33:57.904Z,3.97
2022-09-25T06:36:30.258Z,3.75
2022-09-25T06:38:57.120Z,3.67
2022-09-25T06:41:23.932Z,4.47
2022-09-25T06:43:55.686Z,4.20
2022-09-25T06:46:26.323Z,4.43
2022-09-25T06:49:02.926Z,4.10
2022-09-25T06:51:34.540Z,3.78
2022-09-25T06:54:01.651Z,3.75
2022-09-25T06:56:28.482Z,3.67
2022-09-25T06:58:55.243Z,3.60
2022-09-25T07:01:22.266Z,3.90
2022-09-25T07:03:50.136Z,4.82
2022-09-25T07:06:18.304Z,4.35
2022-09-25T07:08:49.171Z,5.38
2022-09-25T07:11:25.977Z,5.85
2022-09-25T07:13:55.951Z,4.00
2022-09-25T07:16:23.916Z,4.68
2022-09-25T07:18:56.452Z,5.10
2022-09-25T07:21:25.179Z,5.57
2022-09-25T07:23:55.488Z,6.97
2022-09-25T07:26:24.353Z,5.70
2022-09-25T07:28:58.372Z,7.85
2022-09-25T07:31:29.158Z,5.72
2022-09-25T07:33:57.416Z,5.68
2022-09-25T07:36:28.461Z,8.52
2022-09-25T07:38:55.440Z,6.05
2022-09-25T07:41:23.918Z,7.70
2022-09-25T07:44:11.920Z,7.63
2022-09-25T07:46:44.886Z,6.45
2022-09-25T07:49:14.955Z,7.15
2022-09-25T07:51:42.087Z,5.45
2022-09-25T07:54:12.245Z,8.25
2022-09-25T07:56:42.186Z,6.78
2022-09-25T07:59:08.886Z,9.25
2022-09-25T08:01:39.650Z,9.60
2022-09-25T08:04:13.212Z,9.73
2022-09-25T08:06:41.582Z,8.00
2022-09-25T08:09:10.813Z,8.88
2022-09-25T08:11:38.228Z,7.68
2022-09-25T08:14:05.023Z,8.07
2022-09-25T08:16:31.988Z,8.27
2022-09-25T08:18:59.017Z,6.05
2022-09-25T08:21:28.871Z,8.63
2022-09-25T08:23:58.339Z,6.63
2022-09-25T08:26:31.409Z,6.68
2022-09-25T08:28:59.651Z,9.40
2022-09-25T08:31:26.696Z,10.20
2022-09-25T08:33:56.171Z,10.27
2022-09-25T08:36:29.217Z,7.60
2022-09-25T08:38:58.356Z,10.45
2022-09-25T08:41:25.215Z,7.05
2022-09-25T08:43:52.004Z,8.48
2022-09-25T08:46:39.316Z,10.13
2022-09-25T08:49:10.345Z,9.88
2022-09-25T08:51:43.250Z,8.90
2022-09-25T08:54:17.114Z,8.45
2022-09-25T08:56:52.495Z,5.55
2022-09-25T08:59:28.915Z,9.82
2022-09-25T09:02:12.784Z,10.45
2022-09-25T09:04:48.004Z,8.30
2022-09-25T09:07:26.907Z,6.50
2022-09-25T09:10:03.013Z,6.95
2022-09-25T09:12:44.017Z,9.73
2022-09-25T09:15:28.816Z,10.60
2022-09-25T09:17:58.958Z,8.57
2022-09-25T09:20:34.731Z,9.80
2022-09-25T09:23:02.512Z,7.88
2022-09-25T09:25:36.275Z,10.38
2022-09-25T09:28:11.688Z,8.02
2022-09-25T09:30:58.660Z,11.07
2022-09-25T09:33:41.820Z,6.75
2022-09-25T09:36:25.835Z,9.60
2022-09-25T09:39:11.308Z,11.27
2022-09-25T09:41:56.608Z,11.32
2022-09-25T09:44:41.913Z,11.30
2022-09-25T09:47:25.880Z,8.18
2022-09-25T09:50:01.480Z,11.90
2022-09-25T09:52:39.739Z,13.38
2022-09-25T09:55:21.203Z,10.68
2022-09-25T09:57:52.052Z,3.75
2022-09-25T10:00:23.165Z,10.55
2022-09-25T10:02:59.694Z,7.70
2022-09-25T10:05:34.241Z,9.05
2022-09-25T10:08:01.921Z,6.40
2022-09-25T10:10:39.529Z,7.93
2022-09-25T10:13:15.094Z,9.93
2022-09-25T10:15:52.989Z,10.98
2022-09-25T10:18:23.392Z,4.85
2022-09-25T10:20:57.412Z,12.15
2022-09-25T10:23:39.168Z,6.70
2022-09-25T10:26:23.807Z,7.20
2022-09-25T10:28:50.719Z,5.30
2022-09-25T10:31:21.265Z,11.80
2022-09-25T10:34:07.183Z,11.15
2022-09-25T10:36:41.509Z,9.60
2022-09-25T10:39:42.994Z,7.57
2022-09-25T10:42:30.377Z,6.68
2022-09-25T10:44:59.320Z,5.82
2022-09-25T10:47:48.956Z,7.63
2022-09-25T10:50:22.075Z,7.40
2022-09-25T10:52:53.203Z,7.47
2022-09-25T10:55:25.230Z,6.78
2022-09-25T10:58:03.478Z,7.00
2022-09-25T11:00:30.901Z,7.03
2022-09-25T11:03:01.148Z,7.05
2022-09-25T11:05:33.540Z,5.55
2022-09-25T11:08:01.588Z,5.53
2022-09-25T11:10:34.137Z,5.55
2022-09-25T11:13:05.253Z,3.92
2022-09-25T11:19:19.374Z,5.30
2022-09-25T11:21:53.107Z,5.35
2022-09-25T11:24:37.358Z,6.78
2022-09-25T11:27:08.636Z,6.68
2022-09-25T11:29:49.371Z,5.72
2022-09-25T11:32:19.107Z,7.65
2022-09-25T11:34:55.381Z,4.88
2022-09-25T11:37:29.697Z,4.07
2022-09-25T11:40:19.110Z,5.72
2022-09-25T11:42:55.347Z,7.38
2022-09-25T11:45:36.888Z,5.95
2022-09-25T11:48:03.668Z,4.28
2022-09-25T11:50:36.943Z,6.53
2022-09-25T11:53:03.704Z,6.28
2022-09-25T11:55:43.288Z,7.18
2022-09-25T11:58:24.716Z,6.10
2022-09-25T12:01:10.220Z,4.25
2022-09-25T12:03:46.858Z,6.15
2022-09-25T12:06:14.539Z,7.20
2022-09-25T12:08:54.684Z,5.95
2022-09-25T12:11:41.473Z,6.65
2022-09-25T12:14:14.341Z,5.55
2022-09-25T12:16:49.608Z,5.40
2022-09-25T12:19:27.539Z,5.35
2022-09-25T12:22:09.558Z,6.95
2022-09-25T12:24:54.828Z,6.20
2022-09-25T12:27:29.071Z,4.47
2022-09-25T12:30:11.967Z,7.03
2022-09-25T12:32:57.235Z,6.38
2022-09-25T12:35:27.357Z,5.28
2022-09-25T12:38:02.929Z,5.95
2022-09-25T12:40:43.722Z,4.82
2022-09-25T12:43:11.499Z,6.00
2022-09-25T12:45:44.232Z,4.85
2022-09-25T12:48:20.197Z,5.28
2022-09-25T12:50:56.144Z,3.70
2022-09-25T12:53:46.226Z,3.17
2022-09-25T12:56:28.095Z,3.65
2022-09-25T12:58:59.490Z,3.13
2022-09-25T13:01:39.853Z,3.53
2022-09-25T13:04:10.919Z,3.33
2022-09-25T13:06:41.020Z,3.38
2022-09-25T13:09:17.579Z,2.75
2022-09-25T13:11:51.264Z,2.53
2022-09-25T13:14:26.415Z,2.53
2022-09-25T13:16:53.258Z,2.50
2022-09-25T13:19:27.568Z,2.47
2022-09-25T13:22:04.608Z,2.28
2022-09-25T13:24:39.238Z,2.28
2022-09-25T13:27:06.878Z,2.25
2022-09-25T13:29:44.187Z,2.30
2022-09-25T13:32:16.862Z,1.88
2022-09-25T13:34:43.902Z,2.17
2022-09-25T13:37:12.927Z,1.95
2022-09-25T13:40:05.497Z,2.28
2022-09-25T13:42:38.096Z,1.80
2022-09-25T13:45:23.247Z,2.03
2022-09-25T13:47:55.402Z,2.13
2022-09-25T13:50:28.559Z,1.88
2022-09-25T13:53:22.486Z,2.05
2022-09-25T13:55:55.329Z,1.80
2022-09-25T13:58:27.553Z,2.00
2022-09-25T14:00:59.093Z,1.92
2022-09-25T14:03:35.248Z,2.30
2022-09-25T14:06:02.402Z,2.92
2022-09-25T14:08:31.999Z,2.20
2022-09-25T14:11:04.218Z,2.08
2022-09-25T14:13:32.650Z,3.03
2022-09-25T14:16:00.793Z,2.67
2022-09-25T14:18:37.851Z,1.92
2022-09-25T14:21:09.946Z,1.75
2022-09-25T14:23:50.452Z,1.73
2022-09-25T14:26:28.399Z,1.63
2022-09-25T14:28:56.213Z,1.63
2022-09-25T14:31:32.277Z,1.70
2022-09-25T14:34:04.858Z,1.65
2022-09-25T14:36:35.353Z,1.55
2022-09-25T14:39:20.683Z,1.73
2022-09-25T14:41:59.493Z,1.63
2022-09-25T14:44:26.813Z,1.73
2022-09-25T14:46:55.237Z,1.60
2022-09-25T14:49:25.019Z,1.95
2022-09-25T14:51:54.062Z,2.50
2022-09-25T14:54:26.107Z,1.88
2022-09-25T14:57:00.445Z,2.00
2022-09-25T14:59:36.679Z,2.30
2022-09-25T15:02:18.974Z,1.88
2022-09-25T15:04:49.614Z,1.90
2022-09-25T15:07:18.298Z,1.63
2022-09-25T15:09:49.385Z,1.45
2022-09-25T15:12:21.098Z,1.00
2022-09-25T15:14:58.081Z,1.55
2022-09-25T15:17:26.170Z,2.00
2022-09-25T15:19:53.168Z,1.90
2022-09-25T15:22:22.105Z,1.88
2022-09-25T15:24:50.872Z,1.90
2022-09-25T15:27:20.857Z,1.70
2022-09-25T15:29:48.037Z,1.60
2022-09-25T15:32:27.066Z,2.00
2022-09-25T15:35:32.638Z,2.03
2022-09-25T15:38:08.397Z,1.80
2022-09-25T15:40:35.463Z,1.58
2022-09-25T15:43:03.087Z,1.67
2022-09-25T15:45:37.407Z,1.27
2022-09-25T15:48:10.838Z,1.48
2022-09-25T15:50:45.238Z,1.48
2022-09-25T15:53:20.647Z,1.30
2022-09-25T15:55:50.288Z,1.42
2022-09-25T15:58:22.286Z,1.52
2022-09-25T16:01:18.489Z,1.42
2022-09-25T16:04:05.762Z,1.60
2022-09-25T16:06:37.927Z,1.35
2022-09-25T16:09:22.079Z,1.85
2022-09-25T16:11:49.030Z,1.52
2022-09-25T16:14:22.238Z,1.60
2022-09-25T16:16:52.784Z,1.88
2022-09-25T16:19:21.924Z,1.65
2022-09-25T16:21:51.437Z,1.60
2022-09-25T16:24:19.960Z,1.65
2022-09-25T16:26:49.086Z,1.77
2022-09-25T16:29:24.771Z,1.83
2022-09-25T16:31:54.352Z,2.17
2022-09-25T16:34:26.744Z,1.58
2022-09-25T16:36:56.086Z,1.60
2022-09-25T16:39:34.024Z,1.70
2022-09-25T16:42:26.654Z,1.75
2022-09-25T16:45:04.060Z,1.48
2022-09-25T16:47:35.278Z,1.83
2022-09-25T16:50:02.559Z,2.00
2022-09-25T16:52:31.943Z,2.13
2022-09-25T16:55:02.281Z,1.63
2022-09-25T16:57:29.769Z,1.80
2022-09-25T16:59:56.685Z,1.67
2022-09-25T17:02:36.223Z,1.77
2022-09-25T17:05:05.321Z,1.38
2022-09-25T17:07:35.930Z,1.50
2022-09-25T17:10:02.919Z,1.75
2022-09-25T17:12:30.535Z,1.90
2022-09-25T17:15:01.094Z,1.73
2022-09-25T17:17:31.421Z,1.58
2022-09-25T17:20:01.647Z,1.60
2022-09-25T17:22:31.323Z,1.90
2022-09-25T17:25:00.920Z,2.03
2022-09-25T17:27:31.241Z,1.98
2022-09-25T17:30:00.496Z,1.77
2022-09-25T17:32:27.537Z,2.05
2022-09-25T17:34:59.730Z,1.70
2022-09-25T17:37:27.142Z,1.63
2022-09-25T17:39:56.618Z,1.90
2022-09-25T17:42:29.198Z,1.88
2022-09-25T17:45:00.401Z,1.88
2022-09-25T17:47:27.726Z,1.77
2022-09-25T17:49:54.578Z,1.90
2022-09-25T17:52:24.487Z,2.03
2022-09-25T17:54:53.918Z,2.00
2022-09-25T17:57:23.545Z,2.05
2022-09-25T17:59:53.840Z,2.53
2022-09-25T18:02:23.160Z,2.17
2022-09-25T18:04:50.126Z,2.70
2022-09-25T18:07:20.808Z,2.03
2022-09-25T18:09:50.370Z,2.85
2022-09-25T18:12:17.239Z,2.25
2022-09-25T18:14:46.059Z,2.95
2022-09-25T18:17:15.118Z,2.78
2022-09-25T18:20:00.430Z,2.63
2022-09-25T18:22:28.340Z,2.40
2022-09-25T18:24:57.263Z,2.97
2022-09-25T18:27:29.216Z,2.70
2022-09-25T18:29:56.327Z,3.35
2022-09-25T18:32:24.786Z,3.45
2022-09-25T18:34:51.921Z,3.13
2022-09-25T18:37:21.573Z,3.45
2022-09-25T18:39:48.383Z,3.70
2022-09-25T18:42:18.318Z,3.33
2022-09-25T18:44:45.061Z,2.90
2022-09-25T18:47:12.082Z,2.80
2022-09-25T18:49:41.711Z,2.20
2022-09-25T18:52:11.467Z,3.55
2022-09-25T18:54:42.404Z,3.47
2022-09-25T18:57:10.538Z,3.00
2022-09-25T18:59:37.584Z,2.83
2022-09-25T19:02:07.136Z,2.70
2022-09-25T19:04:36.733Z,2.28
2022-09-25T19:07:06.928Z,1.75
2022-09-25T19:09:38.528Z,2.40
2022-09-25T19:12:08.102Z,2.40
2022-09-25T19:14:39.971Z,1.98
2022-09-25T19:17:06.812Z,2.08
2022-09-25T19:19:35.306Z,2.22
2022-09-25T19:22:05.761Z,2.00
2022-09-25T19:24:36.757Z,1.98
2022-09-25T19:27:05.594Z,2.28
2022-09-25T19:29:36.642Z,2.08
2022-09-25T19:32:10.447Z,1.88
2022-09-25T19:34:37.446Z,2.10
2022-09-25T19:37:04.832Z,2.05
2022-09-25T19:39:52.215Z,2.10
2022-09-25T19:42:19.282Z,1.73
2022-09-25T19:44:50.207Z,1.60
2022-09-25T19:47:19.224Z,1.63
2022-09-25T19:49:49.197Z,1.75
2022-09-25T19:52:20.914Z,2.10
2022-09-25T19:54:51.264Z,1.63
2022-09-25T19:57:21.286Z,1.90
2022-09-25T19:59:49.642Z,2.00
2022-09-25T20:02:19.301Z,1.50
2022-09-25T20:04:49.257Z,1.55
2022-09-25T20:07:16.733Z,1.75
2022-09-25T20:09:44.883Z,1.60
2022-09-25T20:12:11.905Z,1.90
2022-09-25T20:14:38.787Z,1.85
2022-09-25T20:17:10.075Z,1.70
2022-09-25T20:19:37.917Z,1.77
2022-09-25T20:22:04.801Z,1.77
2022-09-25T20:24:34.462Z,3.58
2022-09-25T20:27:01.452Z,3.63
2022-09-25T20:29:28.526Z,3.28
2022-09-25T20:31:55.412Z,2.88
2022-09-25T20:34:22.414Z,3.47
2022-09-25T20:36:49.834Z,2.75
2022-09-25T20:39:20.815Z,2.33
2022-09-25T20:41:47.813Z,2.20
2022-09-25T20:44:15.223Z,2.40
2022-09-25T20:46:45.903Z,2.10
2022-09-25T20:49:16.881Z,2.05
2022-09-25T20:51:47.285Z,1.88
2022-09-25T20:54:14.524Z,2.17
2022-09-25T20:56:45.724Z,2.53
2022-09-25T20:59:12.764Z,2.03
2022-09-25T21:01:42.349Z,2.92
2022-09-25T21:04:10.192Z,2.17
2022-09-25T21:06:41.502Z,2.22
2022-09-25T21:09:10.640Z,1.90
2022-09-25T21:11:40.570Z,1.92
2022-09-25T21:14:07.579Z,1.80
2022-09-25T21:16:34.724Z,1.55
2022-09-25T21:19:06.572Z,1.73
2022-09-25T21:21:35.766Z,1.77
2022-09-25T21:24:02.851Z,1.67
2022-09-25T21:26:30.452Z,1.63
2022-09-25T21:28:58.266Z,1.73
2022-09-25T21:31:29.360Z,1.58
2022-09-25T21:33:57.186Z,1.80
2022-09-25T21:36:27.179Z,1.70
2022-09-25T21:38:54.286Z,1.50
2022-09-25T21:41:25.444Z,2.05
2022-09-25T21:44:01.127Z,1.95
2022-09-25T21:46:29.026Z,2.10
2022-09-25T21:49:02.174Z,2.25
2022-09-25T21:51:33.299Z,2.00
2022-09-25T21:54:06.581Z,2.40
2022-09-25T21:56:33.492Z,2.78
2022-09-25T21:59:08.613Z,1.98
2022-09-25T22:01:39.772Z,2.90
2022-09-25T22:04:09.774Z,2.28
2022-09-25T22:06:37.946Z,2.30
2022-09-25T22:09:12.480Z,2.58
2022-09-25T22:11:39.827Z,1.92
2022-09-25T22:14:09.819Z,1.90
2022-09-25T22:16:39.833Z,2.47
2022-09-25T22:19:14.467Z,2.88
2022-09-25T22:21:44.885Z,2.75
2022-09-25T22:24:14.767Z,2.90
2022-09-25T22:26:43.199Z,2.65
2022-09-25T22:29:15.393Z,1.88
2022-09-25T22:31:45.144Z,2.88
2022-09-25T22:34:19.291Z,2.50
2022-09-25T22:36:53.613Z,2.03
2022-09-25T22:39:26.740Z,2.30
2022-09-25T22:41:54.131Z,2.30
2022-09-25T22:44:21.365Z,2.35
2022-09-25T22:46:48.509Z,2.22
2022-09-25T22:49:15.451Z,2.70
2022-09-25T22:51:47.599Z,2.22
2022-09-25T22:54:17.154Z,2.25
2022-09-25T22:56:44.300Z,2.65
2022-09-25T22:59:13.006Z,2.15
2022-09-25T23:01:47.976Z,2.42
2022-09-25T23:04:17.277Z,2.00
2022-09-25T23:06:44.612Z,2.17
2022-09-25T23:09:12.607Z,2.08
2022-09-25T23:11:39.679Z,2.00
2022-09-25T23:14:17.308Z,2.13
2022-09-25T23:16:45.033Z,2.30
2022-09-25T23:19:12.418Z,2.28
2022-09-25T23:21:42.341Z,2.00
2022-09-25T23:24:14.392Z,1.83
2022-09-25T23:26:41.611Z,2.10
2022-09-25T23:29:08.580Z,1.92
2022-09-25T23:31:35.439Z,2.08
2022-09-25T23:34:02.793Z,2.20
2022-09-25T23:36:33.298Z,1.92
2022-09-25T23:39:03.978Z,2.13
2022-09-25T23:41:34.620Z,2.45
2022-09-25T23:44:02.060Z,2.38
2022-09-25T23:46:33.795Z,1.85
2022-09-25T23:49:03.944Z,1.85
2022-09-25T23:51:30.947Z,1.75
2022-09-25T23:53:58.644Z,1.52
2022-09-25T23:56:27.544Z,2.05
2022-09-25T23:58:56.179Z,2.00
